Torsdagen den 23 februari 2017 (Torsten, Torun)

Blekinge Flygklubb
Eringsbodavägen 16 B
372 92 Kallinge
Org.nr. 835600-0144

Det finns inget på Anslagstavlan.

Väder ESDF

METAR
ESDF 231750Z 11005KT 9999 FEW006 BKN022 03/02 Q0986

TAF
ESDF 231730Z 2318/2322 24005KT 9999 FEW025 BECMG 2318/2319 06009KT 6000 -RASN SCT004 BKN015 PROB40 2318/2320 3000 RASN BKN006 PROB40 2320/2322 1000 SN VV003

Förgasaris
Svår is vid alla effekter

METAR | TAF | Nordic SWC | Väderstatistik

Inhämta alltid aktuellt väder hos LFV innan du flyger.

NOTAM för kommande 24h

+ = 0-3 dgr | - = >3 dgr gammal
Endast VFR. Kontrollera alltid hos LFV.